Ratcliff, Arkansas
Current Conditions -  °F | °C
As of 7:53 AM on Monday 24 Nov 2014 (Local Time) from KFSM Reporting Station
Clear Clear  
Wind Chill: 37°   Ceiling: Unl
Heat Index: 42°   Visibility: 10mi
Dew Point: 34°   Wind: 9mph
Humidity: 73%   Direction: 250°WSW
Pressure: 29.89"   Gusts: NA
Location:  35.31°N, 93.88°W
Report Text: KFSM 241353Z 25008KT 10SM CLR 06/01 A2989 RMK AO2 SLP120 T00560011
Loading
Personal Weather Stations






























Interactive Weather Map New forecast layout! Learn more

10-Day Weather Forecast

Advertisements
Track Severe Weather on mobile